sensor_id;sensor_type;location;lat;lon;timestamp;pressure;altitude;pressure_sealevel;temperature;humidity
67803;BME280;54601;51.378;-1.342;2023-01-28T00:02:21;101775.73;;;16.58;29.16
67803;BME280;54601;51.378;-1.342;2023-01-28T00:04:47;101774.91;;;16.56;29.02
67803;BME280;54601;51.378;-1.342;2023-01-28T00:07:12;101781.62;;;16.58;28.94
67803;BME280;54601;51.378;-1.342;2023-01-28T00:09:37;101783.66;;;16.09;28.96
67803;BME280;54601;51.378;-1.342;2023-01-28T00:12:03;101784.82;;;16.56;28.89
67803;BME280;54601;51.378;-1.342;2023-01-28T00:14:28;101787.18;;;16.54;28.85
67803;BME280;54601;51.378;-1.342;2023-01-28T00:16:53;101789.57;;;16.47;28.84
67803;BME280;54601;51.378;-1.342;2023-01-28T00:19:19;101789.41;;;16.48;28.78
67803;BME280;54601;51.378;-1.342;2023-01-28T00:21:44;101789.78;;;16.48;28.74
67803;BME280;54601;51.378;-1.342;2023-01-28T00:24:09;101787.34;;;16.33;28.63
67803;BME280;54601;51.378;-1.342;2023-01-28T00:26:35;101787.21;;;16.56;28.57
67803;BME280;54601;51.378;-1.342;2023-01-28T00:29:00;101783.71;;;16.26;28.56
67803;BME280;54601;51.378;-1.342;2023-01-28T00:31:26;101780.10;;;16.21;28.58
67803;BME280;54601;51.378;-1.342;2023-01-28T00:33:51;101782.35;;;16.50;28.53
67803;BME280;54601;51.378;-1.342;2023-01-28T00:36:17;101779.87;;;16.37;28.65
67803;BME280;54601;51.378;-1.342;2023-01-28T00:38:42;101778.68;;;16.20;28.54
67803;BME280;54601;51.378;-1.342;2023-01-28T00:41:07;101775.81;;;16.36;28.59
67803;BME280;54601;51.378;-1.342;2023-01-28T00:43:32;101773.73;;;16.34;28.51
67803;BME280;54601;51.378;-1.342;2023-01-28T00:45:57;101773.06;;;16.18;28.41
67803;BME280;54601;51.378;-1.342;2023-01-28T00:48:23;101779.27;;;16.36;28.49
67803;BME280;54601;51.378;-1.342;2023-01-28T00:50:48;101784.89;;;16.36;28.43
67803;BME280;54601;51.378;-1.342;2023-01-28T00:53:13;101782.50;;;16.40;28.36
67803;BME280;54601;51.378;-1.342;2023-01-28T00:55:39;101782.10;;;16.33;28.40
67803;BME280;54601;51.378;-1.342;2023-01-28T00:58:04;101786.53;;;16.27;28.43
67803;BME280;54601;51.378;-1.342;2023-01-28T01:00:29;101788.70;;;16.23;28.43
67803;BME280;54601;51.378;-1.342;2023-01-28T01:02:55;101788.03;;;16.10;28.35
67803;BME280;54601;51.378;-1.342;2023-01-28T01:05:20;101784.09;;;16.31;28.35
67803;BME280;54601;51.378;-1.342;2023-01-28T01:07:45;101784.41;;;16.22;28.44
67803;BME280;54601;51.378;-1.342;2023-01-28T01:10:13;101789.70;;;16.28;28.37
67803;BME280;54601;51.378;-1.342;2023-01-28T01:12:36;101793.34;;;16.24;28.41
67803;BME280;54601;51.378;-1.342;2023-01-28T01:15:02;101795.46;;;16.33;28.32
67803;BME280;54601;51.378;-1.342;2023-01-28T01:17:29;101791.97;;;16.19;28.46
67803;BME280;54601;51.378;-1.342;2023-01-28T01:19:52;101790.01;;;16.27;28.37
67803;BME280;54601;51.378;-1.342;2023-01-28T01:22:17;101788.45;;;16.26;28.37
67803;BME280;54601;51.378;-1.342;2023-01-28T01:24:43;101792.16;;;15.97;28.47
67803;BME280;54601;51.378;-1.342;2023-01-28T01:27:08;101796.76;;;15.95;28.45
67803;BME280;54601;51.378;-1.342;2023-01-28T01:29:33;101796.54;;;16.21;28.43
67803;BME280;54601;51.378;-1.342;2023-01-28T01:31:59;101794.40;;;16.19;28.41
67803;BME280;54601;51.378;-1.342;2023-01-28T01:34:24;101793.60;;;16.28;28.36
67803;BME280;54601;51.378;-1.342;2023-01-28T01:36:49;101786.93;;;16.05;28.35
67803;BME280;54601;51.378;-1.342;2023-01-28T01:39:15;101785.98;;;16.33;28.31
67803;BME280;54601;51.378;-1.342;2023-01-28T01:41:40;101784.17;;;16.21;28.38
67803;BME280;54601;51.378;-1.342;2023-01-28T01:46:36;101784.79;;;16.12;28.25
67803;BME280;54601;51.378;-1.342;2023-01-28T01:48:56;101784.09;;;16.41;28.18
67803;BME280;54601;51.378;-1.342;2023-01-28T01:51:24;101777.21;;;16.40;28.22
67803;BME280;54601;51.378;-1.342;2023-01-28T01:53:49;101775.66;;;16.17;28.19
67803;BME280;54601;51.378;-1.342;2023-01-28T01:56:16;101775.10;;;16.31;28.25
67803;BME280;54601;51.378;-1.342;2023-01-28T01:58:40;101774.12;;;16.33;28.22
67803;BME280;54601;51.378;-1.342;2023-01-28T02:01:03;101772.01;;;16.25;28.32
67803;BME280;54601;51.378;-1.342;2023-01-28T02:03:32;101773.14;;;16.27;28.29
67803;BME280;54601;51.378;-1.342;2023-01-28T02:05:53;101772.45;;;16.33;28.22
67803;BME280;54601;51.378;-1.342;2023-01-28T02:08:19;101772.43;;;16.32;28.24
67803;BME280;54601;51.378;-1.342;2023-01-28T02:10:45;101778.39;;;16.31;28.24
67803;BME280;54601;51.378;-1.342;2023-01-28T02:13:09;101778.75;;;16.35;28.14
67803;BME280;54601;51.378;-1.342;2023-01-28T02:15:35;101780.28;;;16.29;28.25
67803;BME280;54601;51.378;-1.342;2023-01-28T02:18:00;101778.28;;;16.32;28.21
67803;BME280;54601;51.378;-1.342;2023-01-28T02:20:33;101782.21;;;16.41;28.14
67803;BME280;54601;51.378;-1.342;2023-01-28T02:23:06;101787.11;;;16.36;28.19
67803;BME280;54601;51.378;-1.342;2023-01-28T02:27:51;101788.85;;;16.24;28.06
67803;BME280;54601;51.378;-1.342;2023-01-28T02:30:12;101798.08;;;16.35;28.19
67803;BME280;54601;51.378;-1.342;2023-01-28T02:32:37;101792.84;;;16.63;27.90
67803;BME280;54601;51.378;-1.342;2023-01-28T02:35:02;101794.43;;;16.57;27.95
67803;BME280;54601;51.378;-1.342;2023-01-28T02:37:28;101794.94;;;16.35;28.20
67803;BME280;54601;51.378;-1.342;2023-01-28T02:39:51;101801.52;;;16.38;28.14
67803;BME280;54601;51.378;-1.342;2023-01-28T02:42:17;101797.33;;;16.86;27.90
67803;BME280;54601;51.378;-1.342;2023-01-28T02:44:39;101793.23;;;16.51;28.00
67803;BME280;54601;51.378;-1.342;2023-01-28T02:47:09;101797.26;;;16.56;27.95
67803;BME280;54601;51.378;-1.342;2023-01-28T02:49:34;101807.78;;;16.34;28.16
67803;BME280;54601;51.378;-1.342;2023-01-28T02:52:03;101807.84;;;16.31;28.17
67803;BME280;54601;51.378;-1.342;2023-01-28T02:54:29;101807.36;;;16.49;28.03
67803;BME280;54601;51.378;-1.342;2023-01-28T02:56:48;101810.39;;;16.62;27.67
67803;BME280;54601;51.378;-1.342;2023-01-28T02:59:15;101817.05;;;16.58;27.92
67803;BME280;54601;51.378;-1.342;2023-01-28T03:01:41;101822.82;;;16.34;27.96
67803;BME280;54601;51.378;-1.342;2023-01-28T03:04:06;101821.98;;;16.35;28.15
67803;BME280;54601;51.378;-1.342;2023-01-28T03:06:31;101820.89;;;16.13;28.35
67803;BME280;54601;51.378;-1.342;2023-01-28T03:08:55;101829.28;;;16.25;28.29
67803;BME280;54601;51.378;-1.342;2023-01-28T03:11:18;101827.31;;;16.21;28.36
67803;BME280;54601;51.378;-1.342;2023-01-28T03:13:44;101830.28;;;16.49;28.34
67803;BME280;54601;51.378;-1.342;2023-01-28T03:16:08;101828.49;;;16.38;28.22
67803;BME280;54601;51.378;-1.342;2023-01-28T03:18:37;101828.31;;;15.99;28.29
67803;BME280;54601;51.378;-1.342;2023-01-28T03:21:03;101829.76;;;16.24;28.22
67803;BME280;54601;51.378;-1.342;2023-01-28T03:23:28;101832.50;;;16.24;28.31
67803;BME280;54601;51.378;-1.342;2023-01-28T03:25:51;101828.52;;;16.16;28.37
67803;BME280;54601;51.378;-1.342;2023-01-28T03:28:17;101833.08;;;15.99;28.48
67803;BME280;54601;51.378;-1.342;2023-01-28T03:30:44;101830.46;;;16.31;28.19
67803;BME280;54601;51.378;-1.342;2023-01-28T03:33:06;101830.43;;;16.38;28.09
67803;BME280;54601;51.378;-1.342;2023-01-28T03:35:33;101831.55;;;16.10;28.42
67803;BME280;54601;51.378;-1.342;2023-01-28T03:37:56;101836.84;;;16.19;28.33
67803;BME280;54601;51.378;-1.342;2023-01-28T03:40:22;101840.26;;;16.30;28.16
67803;BME280;54601;51.378;-1.342;2023-01-28T03:42:47;101838.42;;;16.21;28.22
67803;BME280;54601;51.378;-1.342;2023-01-28T03:45:13;101833.06;;;16.29;28.21
67803;BME280;54601;51.378;-1.342;2023-01-28T03:47:38;101825.88;;;16.15;28.19
67803;BME280;54601;51.378;-1.342;2023-01-28T03:50:03;101821.94;;;15.80;28.23
67803;BME280;54601;51.378;-1.342;2023-01-28T03:52:31;101826.49;;;16.19;27.99
67803;BME280;54601;51.378;-1.342;2023-01-28T03:54:54;101822.48;;;16.92;27.75
67803;BME280;54601;51.378;-1.342;2023-01-28T03:57:21;101822.60;;;16.31;27.85
67803;BME280;54601;51.378;-1.342;2023-01-28T03:59:44;101815.68;;;16.54;27.80
67803;BME280;54601;51.378;-1.342;2023-01-28T04:02:11;101812.96;;;16.19;28.09
67803;BME280;54601;51.378;-1.342;2023-01-28T04:04:35;101812.08;;;16.25;28.08
67803;BME280;54601;51.378;-1.342;2023-01-28T04:07:00;101814.34;;;15.96;28.28
67803;BME280;54601;51.378;-1.342;2023-01-28T04:09:26;101813.87;;;16.05;28.21
67803;BME280;54601;51.378;-1.342;2023-01-28T04:11:51;101812.27;;;16.45;27.79
67803;BME280;54601;51.378;-1.342;2023-01-28T04:14:16;101807.08;;;16.48;27.75
67803;BME280;54601;51.378;-1.342;2023-01-28T04:16:42;101808.05;;;16.18;28.01
67803;BME280;54601;51.378;-1.342;2023-01-28T04:19:07;101803.86;;;16.38;27.60
67803;BME280;54601;51.378;-1.342;2023-01-28T04:21:32;101801.40;;;16.71;27.53
67803;BME280;54601;51.378;-1.342;2023-01-28T04:23:58;101799.31;;;16.58;27.59
67803;BME280;54601;51.378;-1.342;2023-01-28T04:26:23;101799.59;;;16.77;27.32
67803;BME280;54601;51.378;-1.342;2023-01-28T04:28:48;101811.79;;;16.54;27.93
67803;BME280;54601;51.378;-1.342;2023-01-28T04:31:14;101813.53;;;16.30;27.55
67803;BME280;54601;51.378;-1.342;2023-01-28T04:33:39;101805.11;;;16.20;27.91
67803;BME280;54601;51.378;-1.342;2023-01-28T04:36:04;101801.41;;;16.56;27.60
67803;BME280;54601;51.378;-1.342;2023-01-28T04:38:30;101810.05;;;16.35;27.67
67803;BME280;54601;51.378;-1.342;2023-01-28T04:40:55;101808.07;;;16.47;27.68
67803;BME280;54601;51.378;-1.342;2023-01-28T04:43:20;101801.12;;;16.54;27.56
67803;BME280;54601;51.378;-1.342;2023-01-28T04:45:46;101797.31;;;16.46;27.64
67803;BME280;54601;51.378;-1.342;2023-01-28T04:48:11;101800.02;;;16.58;27.48
67803;BME280;54601;51.378;-1.342;2023-01-28T04:50:36;101802.01;;;16.37;27.48
67803;BME280;54601;51.378;-1.342;2023-01-28T04:53:02;101794.32;;;16.71;27.33
67803;BME280;54601;51.378;-1.342;2023-01-28T04:55:27;101792.49;;;16.70;27.28
67803;BME280;54601;51.378;-1.342;2023-01-28T04:57:52;101793.40;;;16.68;27.32
67803;BME280;54601;51.378;-1.342;2023-01-28T05:00:18;101789.28;;;16.62;27.34
67803;BME280;54601;51.378;-1.342;2023-01-28T05:02:43;101787.43;;;16.62;27.40
67803;BME280;54601;51.378;-1.342;2023-01-28T05:05:09;101787.95;;;16.60;27.38
67803;BME280;54601;51.378;-1.342;2023-01-28T05:07:34;101792.03;;;16.45;27.31
67803;BME280;54601;51.378;-1.342;2023-01-28T05:09:59;101798.96;;;16.64;27.32
67803;BME280;54601;51.378;-1.342;2023-01-28T05:12:25;101797.57;;;16.64;27.30
67803;BME280;54601;51.378;-1.342;2023-01-28T05:14:50;101793.94;;;16.65;27.29
67803;BME280;54601;51.378;-1.342;2023-01-28T05:17:15;101794.28;;;16.52;27.38
67803;BME280;54601;51.378;-1.342;2023-01-28T05:19:41;101797.92;;;16.61;27.33
67803;BME280;54601;51.378;-1.342;2023-01-28T05:22:06;101804.69;;;16.68;27.24
67803;BME280;54601;51.378;-1.342;2023-01-28T05:24:31;101800.78;;;16.60;27.29
67803;BME280;54601;51.378;-1.342;2023-01-28T05:26:57;101807.94;;;16.45;27.36
67803;BME280;54601;51.378;-1.342;2023-01-28T05:29:22;101804.42;;;16.60;27.21
67803;BME280;54601;51.378;-1.342;2023-01-28T05:31:47;101806.62;;;16.64;27.16
67803;BME280;54601;51.378;-1.342;2023-01-28T05:34:13;101807.80;;;16.97;27.18
67803;BME280;54601;51.378;-1.342;2023-01-28T05:36:38;101810.83;;;16.33;27.03
67803;BME280;54601;51.378;-1.342;2023-01-28T05:39:03;101812.49;;;16.64;26.91
67803;BME280;54601;51.378;-1.342;2023-01-28T05:41:28;101809.88;;;16.54;26.99
67803;BME280;54601;51.378;-1.342;2023-01-28T05:43:54;101808.94;;;16.45;26.85
67803;BME280;54601;51.378;-1.342;2023-01-28T05:46:19;101806.66;;;16.79;26.93
67803;BME280;54601;51.378;-1.342;2023-01-28T05:48:44;101804.93;;;16.83;26.83
67803;BME280;54601;51.378;-1.342;2023-01-28T05:51:10;101805.62;;;16.66;27.09
67803;BME280;54601;51.378;-1.342;2023-01-28T05:53:35;101810.50;;;16.55;27.15
67803;BME280;54601;51.378;-1.342;2023-01-28T05:56:01;101809.99;;;16.72;27.00
67803;BME280;54601;51.378;-1.342;2023-01-28T05:58:26;101812.51;;;16.64;27.00
67803;BME280;54601;51.378;-1.342;2023-01-28T06:00:53;101819.17;;;16.51;27.09
67803;BME280;54601;51.378;-1.342;2023-01-28T06:03:17;101825.27;;;16.59;27.03
67803;BME280;54601;51.378;-1.342;2023-01-28T06:05:42;101829.23;;;16.90;26.99
67803;BME280;54601;51.378;-1.342;2023-01-28T06:08:07;101831.48;;;16.06;27.11
67803;BME280;54601;51.378;-1.342;2023-01-28T06:10:33;101827.47;;;16.59;27.00
67803;BME280;54601;51.378;-1.342;2023-01-28T06:12:58;101821.12;;;16.72;26.81
67803;BME280;54601;51.378;-1.342;2023-01-28T06:15:24;101824.12;;;16.90;26.66
67803;BME280;54601;51.378;-1.342;2023-01-28T06:17:49;101828.81;;;16.55;27.08
67803;BME280;54601;51.378;-1.342;2023-01-28T06:20:15;101826.59;;;16.50;26.99
67803;BME280;54601;51.378;-1.342;2023-01-28T06:22:40;101822.18;;;16.39;27.11
67803;BME280;54601;51.378;-1.342;2023-01-28T06:25:06;101818.80;;;16.38;27.11
67803;BME280;54601;51.378;-1.342;2023-01-28T06:27:30;101814.24;;;16.43;27.01
67803;BME280;54601;51.378;-1.342;2023-01-28T06:29:56;101822.60;;;16.35;27.12
67803;BME280;54601;51.378;-1.342;2023-01-28T06:32:21;101824.07;;;16.48;27.01
67803;BME280;54601;51.378;-1.342;2023-01-28T06:34:46;101820.34;;;16.77;26.67
67803;BME280;54601;51.378;-1.342;2023-01-28T06:37:12;101822.92;;;16.58;26.84
67803;BME280;54601;51.378;-1.342;2023-01-28T06:39:37;101826.97;;;16.38;27.08
67803;BME280;54601;51.378;-1.342;2023-01-28T06:42:03;101819.50;;;16.60;26.84
67803;BME280;54601;51.378;-1.342;2023-01-28T06:44:28;101820.59;;;16.36;27.06
67803;BME280;54601;51.378;-1.342;2023-01-28T06:46:53;101821.42;;;16.41;27.10
67803;BME280;54601;51.378;-1.342;2023-01-28T06:49:19;101824.39;;;16.34;27.02
67803;BME280;54601;51.378;-1.342;2023-01-28T06:51:44;101826.65;;;16.32;27.04
67803;BME280;54601;51.378;-1.342;2023-01-28T06:54:09;101828.56;;;16.14;26.97
67803;BME280;54601;51.378;-1.342;2023-01-28T06:56:35;101824.89;;;16.28;27.00
67803;BME280;54601;51.378;-1.342;2023-01-28T06:59:00;101826.35;;;16.35;27.02
67803;BME280;54601;51.378;-1.342;2023-01-28T07:01:26;101828.83;;;16.18;26.96
67803;BME280;54601;51.378;-1.342;2023-01-28T07:03:51;101826.06;;;16.44;26.88
67803;BME280;54601;51.378;-1.342;2023-01-28T07:06:16;101829.01;;;16.14;27.18
67803;BME280;54601;51.378;-1.342;2023-01-28T07:08:42;101833.35;;;16.35;27.02
67803;BME280;54601;51.378;-1.342;2023-01-28T07:11:07;101829.31;;;16.56;26.84
67803;BME280;54601;51.378;-1.342;2023-01-28T07:13:32;101827.17;;;16.56;26.94
67803;BME280;54601;51.378;-1.342;2023-01-28T07:15:58;101824.69;;;16.55;27.09
67803;BME280;54601;51.378;-1.342;2023-01-28T07:18:23;101828.20;;;16.51;27.19
67803;BME280;54601;51.378;-1.342;2023-01-28T07:20:48;101831.77;;;16.33;27.27
67803;BME280;54601;51.378;-1.342;2023-01-28T07:23:14;101837.73;;;16.47;27.37
67803;BME280;54601;51.378;-1.342;2023-01-28T07:25:39;101834.50;;;16.41;27.46
67803;BME280;54601;51.378;-1.342;2023-01-28T07:28:05;101837.23;;;16.34;27.62
67803;BME280;54601;51.378;-1.342;2023-01-28T07:30:30;101836.52;;;16.35;27.77
67803;BME280;54601;51.378;-1.342;2023-01-28T07:32:56;101843.84;;;16.42;27.73
67803;BME280;54601;51.378;-1.342;2023-01-28T07:35:21;101845.44;;;16.27;27.93
67803;BME280;54601;51.378;-1.342;2023-01-28T07:37:50;101842.45;;;16.35;27.90
67803;BME280;54601;51.378;-1.342;2023-01-28T07:40:12;101848.95;;;16.38;27.98
67803;BME280;54601;51.378;-1.342;2023-01-28T07:42:37;101848.57;;;16.30;28.05
67803;BME280;54601;51.378;-1.342;2023-01-28T07:45:02;101850.84;;;16.33;28.04
67803;BME280;54601;51.378;-1.342;2023-01-28T07:47:27;101845.82;;;16.43;27.95
67803;BME280;54601;51.378;-1.342;2023-01-28T07:49:53;101845.23;;;16.37;28.12
67803;BME280;54601;51.378;-1.342;2023-01-28T07:52:18;101843.16;;;16.41;28.09
67803;BME280;54601;51.378;-1.342;2023-01-28T07:54:43;101844.61;;;16.34;28.19
67803;BME280;54601;51.378;-1.342;2023-01-28T07:57:09;101848.84;;;16.19;28.26
67803;BME280;54601;51.378;-1.342;2023-01-28T07:59:34;101850.76;;;16.20;28.22
67803;BME280;54601;51.378;-1.342;2023-01-28T08:02:00;101848.06;;;16.14;28.35
67803;BME280;54601;51.378;-1.342;2023-01-28T08:04:25;101846.42;;;16.48;28.27
67803;BME280;54601;51.378;-1.342;2023-01-28T08:06:50;101845.71;;;16.48;28.25
67803;BME280;54601;51.378;-1.342;2023-01-28T08:09:15;101851.67;;;16.43;28.34
67803;BME280;54601;51.378;-1.342;2023-01-28T08:11:41;101852.35;;;16.38;28.51
67803;BME280;54601;51.378;-1.342;2023-01-28T08:14:06;101849.01;;;16.33;28.54
67803;BME280;54601;51.378;-1.342;2023-01-28T08:16:31;101844.66;;;16.48;28.36
67803;BME280;54601;51.378;-1.342;2023-01-28T08:18:57;101842.77;;;16.35;28.37
67803;BME280;54601;51.378;-1.342;2023-01-28T08:21:22;101842.10;;;16.55;28.26
67803;BME280;54601;51.378;-1.342;2023-01-28T08:23:47;101841.98;;;16.19;28.49
67803;BME280;54601;51.378;-1.342;2023-01-28T08:26:12;101843.62;;;16.36;28.50
67803;BME280;54601;51.378;-1.342;2023-01-28T08:28:38;101846.73;;;16.23;28.48
67803;BME280;54601;51.378;-1.342;2023-01-28T08:31:03;101849.94;;;16.13;28.50
67803;BME280;54601;51.378;-1.342;2023-01-28T08:33:28;101851.41;;;16.47;28.46
67803;BME280;54601;51.378;-1.342;2023-01-28T08:35:53;101855.70;;;16.54;28.43
67803;BME280;54601;51.378;-1.342;2023-01-28T08:38:19;101862.06;;;16.55;28.36
67803;BME280;54601;51.378;-1.342;2023-01-28T08:40:44;101862.37;;;16.48;28.58
67803;BME280;54601;51.378;-1.342;2023-01-28T08:43:09;101865.05;;;16.41;28.40
67803;BME280;54601;51.378;-1.342;2023-01-28T08:45:35;101869.53;;;16.54;28.48
67803;BME280;54601;51.378;-1.342;2023-01-28T08:48:01;101866.72;;;16.56;28.53
67803;BME280;54601;51.378;-1.342;2023-01-28T08:50:29;101862.53;;;16.44;28.40
67803;BME280;54601;51.378;-1.342;2023-01-28T08:52:54;101869.05;;;16.28;28.36
67803;BME280;54601;51.378;-1.342;2023-01-28T08:55:16;101871.08;;;16.66;28.44
67803;BME280;54601;51.378;-1.342;2023-01-28T08:57:41;101877.31;;;16.78;28.31
67803;BME280;54601;51.378;-1.342;2023-01-28T09:00:08;101877.92;;;16.59;28.25
67803;BME280;54601;51.378;-1.342;2023-01-28T09:02:31;101877.15;;;16.62;28.41
67803;BME280;54601;51.378;-1.342;2023-01-28T09:04:57;101878.69;;;16.53;28.53
67803;BME280;54601;51.378;-1.342;2023-01-28T09:07:22;101878.38;;;16.49;28.66
67803;BME280;54601;51.378;-1.342;2023-01-28T09:09:47;101876.40;;;16.52;28.70
67803;BME280;54601;51.378;-1.342;2023-01-28T09:12:12;101885.44;;;16.74;28.87
67803;BME280;54601;51.378;-1.342;2023-01-28T09:14:37;101885.62;;;16.55;28.79
67803;BME280;54601;51.378;-1.342;2023-01-28T09:17:03;101889.47;;;16.62;28.76
67803;BME280;54601;51.378;-1.342;2023-01-28T09:19:28;101885.84;;;16.82;28.83
67803;BME280;54601;51.378;-1.342;2023-01-28T09:21:53;101892.09;;;16.65;28.77
67803;BME280;54601;51.378;-1.342;2023-01-28T09:24:19;101895.43;;;16.63;28.82
67803;BME280;54601;51.378;-1.342;2023-01-28T09:26:44;101907.70;;;16.40;28.85
67803;BME280;54601;51.378;-1.342;2023-01-28T09:29:09;101896.53;;;16.48;28.76
67803;BME280;54601;51.378;-1.342;2023-01-28T09:31:34;101895.36;;;16.96;28.80
67803;BME280;54601;51.378;-1.342;2023-01-28T09:33:59;101894.36;;;16.51;28.80
67803;BME280;54601;51.378;-1.342;2023-01-28T09:36:25;101891.08;;;16.97;28.79
67803;BME280;54601;51.378;-1.342;2023-01-28T09:38:51;101891.03;;;16.71;28.82
67803;BME280;54601;51.378;-1.342;2023-01-28T09:41:24;101894.35;;;16.75;28.87
67803;BME280;54601;51.378;-1.342;2023-01-28T09:43:49;101897.06;;;16.62;28.72
67803;BME280;54601;51.378;-1.342;2023-01-28T09:46:09;101890.89;;;16.57;28.81
67803;BME280;54601;51.378;-1.342;2023-01-28T09:48:35;101896.98;;;16.65;28.71
67803;BME280;54601;51.378;-1.342;2023-01-28T09:50:57;101894.78;;;16.65;28.74
67803;BME280;54601;51.378;-1.342;2023-01-28T09:53:24;101893.21;;;16.94;28.66
67803;BME280;54601;51.378;-1.342;2023-01-28T09:55:49;101884.19;;;16.95;28.66
67803;BME280;54601;51.378;-1.342;2023-01-28T09:58:14;101889.11;;;16.77;28.68
67803;BME280;54601;51.378;-1.342;2023-01-28T10:00:41;101895.50;;;16.95;28.68
67803;BME280;54601;51.378;-1.342;2023-01-28T10:05:35;101900.10;;;16.84;28.59
67803;BME280;54601;51.378;-1.342;2023-01-28T10:08:00;101889.45;;;16.81;28.57
67803;BME280;54601;51.378;-1.342;2023-01-28T10:10:24;101885.11;;;16.86;28.51
67803;BME280;54601;51.378;-1.342;2023-01-28T10:12:57;101893.81;;;16.85;28.50
67803;BME280;54601;51.378;-1.342;2023-01-28T10:15:19;101889.77;;;17.02;28.27
67803;BME280;54601;51.378;-1.342;2023-01-28T10:17:39;101872.60;;;16.96;28.28
67803;BME280;54601;51.378;-1.342;2023-01-28T10:20:04;101872.17;;;16.91;28.27
67803;BME280;54601;51.378;-1.342;2023-01-28T10:22:29;101866.77;;;16.94;27.98
67803;BME280;54601;51.378;-1.342;2023-01-28T10:24:54;101864.58;;;16.90;28.07
67803;BME280;54601;51.378;-1.342;2023-01-28T10:27:19;101854.92;;;16.90;28.11
67803;BME280;54601;51.378;-1.342;2023-01-28T10:29:41;101852.19;;;16.93;28.01
67803;BME280;54601;51.378;-1.342;2023-01-28T10:32:15;101858.43;;;16.94;28.01
67803;BME280;54601;51.378;-1.342;2023-01-28T10:34:32;101865.44;;;16.87;28.12
67803;BME280;54601;51.378;-1.342;2023-01-28T10:36:57;101861.76;;;16.89;28.14
67803;BME280;54601;51.378;-1.342;2023-01-28T10:39:24;101855.67;;;16.80;28.20
67803;BME280;54601;51.378;-1.342;2023-01-28T10:41:48;101857.55;;;16.89;28.21
67803;BME280;54601;51.378;-1.342;2023-01-28T10:44:15;101848.29;;;16.99;28.12
67803;BME280;54601;51.378;-1.342;2023-01-28T10:46:39;101843.65;;;16.91;28.22
67803;BME280;54601;51.378;-1.342;2023-01-28T10:49:11;101835.40;;;16.87;28.20
67803;BME280;54601;51.378;-1.342;2023-01-28T10:51:31;101831.86;;;17.45;28.07
67803;BME280;54601;51.378;-1.342;2023-01-28T10:53:54;101830.30;;;17.31;28.16
67803;BME280;54601;51.378;-1.342;2023-01-28T10:56:24;101834.91;;;17.05;28.11
67803;BME280;54601;51.378;-1.342;2023-01-28T10:58:52;101833.80;;;17.02;28.17
67803;BME280;54601;51.378;-1.342;2023-01-28T11:01:10;101824.80;;;16.95;28.33
67803;BME280;54601;51.378;-1.342;2023-01-28T11:03:36;101823.01;;;17.10;28.11
67803;BME280;54601;51.378;-1.342;2023-01-28T11:06:02;101825.61;;;17.11;28.24
67803;BME280;54601;51.378;-1.342;2023-01-28T11:08:28;101813.99;;;16.96;28.22
67803;BME280;54601;51.378;-1.342;2023-01-28T11:10:52;101810.61;;;17.15;28.01
67803;BME280;54601;51.378;-1.342;2023-01-28T11:13:18;101803.56;;;16.90;28.13
67803;BME280;54601;51.378;-1.342;2023-01-28T11:15:47;101805.79;;;16.94;28.18
67803;BME280;54601;51.378;-1.342;2023-01-28T11:18:14;101808.59;;;17.33;28.17
67803;BME280;54601;51.378;-1.342;2023-01-28T11:20:36;101807.31;;;17.17;28.08
67803;BME280;54601;51.378;-1.342;2023-01-28T11:22:58;101809.56;;;17.20;27.98
67803;BME280;54601;51.378;-1.342;2023-01-28T11:25:28;101811.94;;;17.16;27.82
67803;BME280;54601;51.378;-1.342;2023-01-28T11:27:50;101818.42;;;17.11;27.88
67803;BME280;54601;51.378;-1.342;2023-01-28T11:30:20;101821.86;;;17.34;27.98
67803;BME280;54601;51.378;-1.342;2023-01-28T11:32:39;101820.18;;;17.28;28.17
67803;BME280;54601;51.378;-1.342;2023-01-28T11:35:04;101821.70;;;17.13;28.12
67803;BME280;54601;51.378;-1.342;2023-01-28T11:37:30;101825.98;;;17.19;28.26
67803;BME280;54601;51.378;-1.342;2023-01-28T11:40:00;101826.15;;;17.06;28.16
67803;BME280;54601;51.378;-1.342;2023-01-28T11:42:21;101827.46;;;17.43;28.09
67803;BME280;54601;51.378;-1.342;2023-01-28T11:44:47;101833.03;;;17.07;28.17
67803;BME280;54601;51.378;-1.342;2023-01-28T11:47:19;101832.07;;;17.09;28.08
67803;BME280;54601;51.378;-1.342;2023-01-28T11:49:48;101831.72;;;16.83;28.25
67803;BME280;54601;51.378;-1.342;2023-01-28T11:52:08;101834.78;;;16.79;28.34
67803;BME280;54601;51.378;-1.342;2023-01-28T11:54:37;101836.54;;;17.07;28.12
67803;BME280;54601;51.378;-1.342;2023-01-28T11:57:00;101835.41;;;17.14;28.02
67803;BME280;54601;51.378;-1.342;2023-01-28T11:59:30;101827.41;;;17.32;28.04
67803;BME280;54601;51.378;-1.342;2023-01-28T12:01:48;101824.86;;;16.81;28.08
67803;BME280;54601;51.378;-1.342;2023-01-28T12:04:19;101823.53;;;17.04;28.15
67803;BME280;54601;51.378;-1.342;2023-01-28T12:06:44;101822.80;;;16.96;28.15
67803;BME280;54601;51.378;-1.342;2023-01-28T12:09:08;101819.21;;;16.70;28.16
67803;BME280;54601;51.378;-1.342;2023-01-28T12:11:29;101821.43;;;16.69;28.17
67803;BME280;54601;51.378;-1.342;2023-01-28T12:13:57;101826.65;;;16.56;28.30
67803;BME280;54601;51.378;-1.342;2023-01-28T12:18:54;101836.98;;;16.68;28.13
67803;BME280;54601;51.378;-1.342;2023-01-28T12:21:06;101832.27;;;16.81;28.02
67803;BME280;54601;51.378;-1.342;2023-01-28T12:23:38;101828.93;;;17.04;27.98
67803;BME280;54601;51.378;-1.342;2023-01-28T12:26:04;101830.71;;;16.78;27.99
67803;BME280;54601;51.378;-1.342;2023-01-28T12:28:30;101838.48;;;17.06;27.91
67803;BME280;54601;51.378;-1.342;2023-01-28T12:30:58;101836.87;;;16.84;27.87
67803;BME280;54601;51.378;-1.342;2023-01-28T12:33:26;101829.63;;;17.01;27.92
67803;BME280;54601;51.378;-1.342;2023-01-28T12:35:47;101825.36;;;16.41;28.20
67803;BME280;54601;51.378;-1.342;2023-01-28T12:38:08;101827.31;;;16.75;27.94
67803;BME280;54601;51.378;-1.342;2023-01-28T12:40:43;101822.41;;;16.53;28.11